Airport ICAO


18:18 UTC

10°C

Scattered clouds


An affordable passengers' Moving Map for your aircraft. Made for the iPad and the iPhone
More information here

LFPO Orly


Paris FRANCE   VFR


METAR LFPO 231800Z 03011KT 9999 SCT033 10/05 Q1029 NOSIG 0h18min

TAF LFPO 231700Z 2318/2424 01008KT 9999 BKN030 TEMPO 2401/2409 3000 BR BKN006 PROB40 TEMPO 2403/2408 0600 BCFG BKN002 BECMG 2416/2418 CAVOK 1h18min





NOTAMS

OPEN